createdAt,value
2019-05-05T00:01:15.968Z,5.83
2019-05-05T00:03:50.623Z,5.40
2019-05-05T00:06:19.723Z,5.40
2019-05-05T00:08:48.758Z,6.23
2019-05-05T00:11:35.250Z,6.70
2019-05-05T00:14:17.591Z,5.73
2019-05-05T00:16:57.452Z,6.40
2019-05-05T00:19:32.636Z,6.30
2019-05-05T00:21:57.373Z,6.30
2019-05-05T00:24:26.457Z,6.23
2019-05-05T00:26:55.550Z,6.23
2019-05-05T00:29:25.363Z,6.03
2019-05-05T00:31:54.767Z,6.20
2019-05-05T00:34:24.441Z,6.60
2019-05-05T00:36:55.265Z,6.07
2019-05-05T00:39:25.529Z,6.77
2019-05-05T00:41:55.494Z,6.63
2019-05-05T00:44:24.764Z,6.87
2019-05-05T00:47:18.573Z,7.40
2019-05-05T00:49:49.481Z,7.10
2019-05-05T00:52:18.650Z,7.03
2019-05-05T00:54:47.780Z,7.23
2019-05-05T00:57:16.899Z,6.93
2019-05-05T00:59:46.027Z,7.87
2019-05-05T01:02:36.563Z,7.63
2019-05-05T01:05:25.339Z,7.93
2019-05-05T01:07:54.804Z,7.90
2019-05-05T01:10:24.842Z,7.73
2019-05-05T01:12:54.562Z,8.20
2019-05-05T01:15:25.437Z,9.27
2019-05-05T01:17:55.271Z,8.50
2019-05-05T01:20:25.037Z,8.90
2019-05-05T01:22:55.310Z,9.03
2019-05-05T01:25:25.809Z,9.07
2019-05-05T01:27:55.008Z,9.03
2019-05-05T01:30:29.591Z,9.37
2019-05-05T01:33:05.483Z,9.37
2019-05-05T01:35:35.964Z,10.57
2019-05-05T01:38:10.501Z,10.63
2019-05-05T01:41:01.326Z,10.23
2019-05-05T01:43:30.447Z,10.10
2019-05-05T01:46:00.693Z,10.13
2019-05-05T01:48:29.846Z,11.20
2019-05-05T01:50:59.034Z,9.93
2019-05-05T01:53:28.206Z,9.57
2019-05-05T01:55:57.263Z,10.30
2019-05-05T01:58:26.492Z,10.00
2019-05-05T02:00:55.645Z,10.83
2019-05-05T02:03:25.196Z,9.97
2019-05-05T02:05:55.826Z,9.10
2019-05-05T02:08:24.891Z,8.57
2019-05-05T02:10:54.752Z,8.53
2019-05-05T02:13:25.176Z,8.53
2019-05-05T02:15:55.275Z,8.70
2019-05-05T02:18:25.348Z,9.87
2019-05-05T02:21:05.173Z,9.90
2019-05-05T02:23:35.376Z,9.80
2019-05-05T02:26:07.259Z,9.93
2019-05-05T02:28:45.428Z,9.43
2019-05-05T02:31:48.331Z,10.23
2019-05-05T02:34:17.407Z,9.60
2019-05-05T02:36:46.475Z,9.80
2019-05-05T02:39:16.148Z,9.17
2019-05-05T02:41:45.423Z,9.63
2019-05-05T02:44:15.490Z,9.10
2019-05-05T02:46:49.611Z,9.73
2019-05-05T02:49:18.734Z,11.73
2019-05-05T02:51:48.092Z,10.33
2019-05-05T02:54:19.341Z,10.33
2019-05-05T02:56:50.412Z,13.27
2019-05-05T02:59:49.227Z,12.40
2019-05-05T03:02:21.237Z,12.43
2019-05-05T03:04:50.454Z,11.13
2019-05-05T03:07:19.640Z,12.07
2019-05-05T03:09:49.087Z,11.97
2019-05-05T03:12:18.671Z,11.83
2019-05-05T03:14:47.870Z,11.83
2019-05-05T03:17:17.007Z,12.43
2019-05-05T03:19:46.162Z,11.37
2019-05-05T03:22:15.306Z,12.40
2019-05-05T03:24:44.732Z,13.03
2019-05-05T03:27:14.454Z,13.17
2019-05-05T03:29:44.212Z,12.70
2019-05-05T03:32:16.018Z,12.43
2019-05-05T03:34:45.002Z,12.63
2019-05-05T03:37:14.715Z,12.23
2019-05-05T03:39:47.945Z,12.87
2019-05-05T03:42:49.010Z,13.40
2019-05-05T03:45:34.283Z,12.97
2019-05-05T03:48:04.638Z,14.27
2019-05-05T03:50:34.116Z,13.27
2019-05-05T03:53:04.913Z,14.63
2019-05-05T03:55:34.533Z,14.60
2019-05-05T03:58:04.117Z,14.37
2019-05-05T04:01:23.974Z,14.40
2019-05-05T04:03:54.116Z,11.90
2019-05-05T04:06:37.201Z,12.57
2019-05-05T04:09:08.187Z,11.97
2019-05-05T04:11:37.741Z,12.50
2019-05-05T04:14:08.260Z,13.23
2019-05-05T04:16:43.623Z,14.27
2019-05-05T04:19:13.906Z,14.23
2019-05-05T04:21:44.911Z,13.87
2019-05-05T04:24:14.783Z,13.70
2019-05-05T04:26:44.144Z,14.33
2019-05-05T04:29:13.939Z,14.03
2019-05-05T04:31:46.056Z,12.93
2019-05-05T04:34:16.192Z,14.07
2019-05-05T04:36:45.318Z,13.33
2019-05-05T04:39:14.541Z,13.70
2019-05-05T04:41:44.094Z,13.70
2019-05-05T04:44:14.852Z,13.73
2019-05-05T04:46:45.711Z,12.43
2019-05-05T04:49:33.958Z,12.00
2019-05-05T04:52:05.755Z,13.13
2019-05-05T04:54:48.325Z,12.00
2019-05-05T04:57:17.400Z,12.03
2019-05-05T04:59:47.485Z,14.10
2019-05-05T05:02:35.549Z,13.60
2019-05-05T05:05:20.680Z,13.27
2019-05-05T05:07:49.806Z,12.03
2019-05-05T05:10:19.080Z,14.13
2019-05-05T05:12:49.945Z,13.33
2019-05-05T05:15:19.165Z,15.30
2019-05-05T05:17:54.978Z,14.10
2019-05-05T05:20:24.681Z,14.03
2019-05-05T05:22:54.436Z,12.80
2019-05-05T05:25:24.068Z,14.43
2019-05-05T05:27:54.365Z,13.03
2019-05-05T05:30:24.236Z,13.37
2019-05-05T05:32:53.933Z,12.33
2019-05-05T05:35:24.413Z,13.03
2019-05-05T05:37:57.627Z,13.53
2019-05-05T05:41:04.243Z,15.63
2019-05-05T05:43:43.960Z,14.20
2019-05-05T05:46:29.479Z,14.80
2019-05-05T05:49:24.144Z,13.00
2019-05-05T05:51:53.882Z,14.80
2019-05-05T05:54:23.540Z,14.27
2019-05-05T05:56:53.823Z,14.83
2019-05-05T05:59:24.681Z,16.33
2019-05-05T06:02:08.702Z,15.33
2019-05-05T06:04:25.862Z,15.10
2019-05-05T06:06:55.236Z,15.23
2019-05-05T06:09:24.391Z,15.03
2019-05-05T06:11:54.223Z,14.93
2019-05-05T06:14:24.670Z,14.67
2019-05-05T06:16:54.127Z,14.00
2019-05-05T06:19:24.608Z,15.20
2019-05-05T06:21:54.369Z,14.20
2019-05-05T06:24:24.635Z,13.80
2019-05-05T06:26:54.712Z,15.97
2019-05-05T06:29:24.007Z,15.77
2019-05-05T06:31:53.769Z,13.20
2019-05-05T06:34:24.400Z,11.93
2019-05-05T06:36:53.843Z,12.00
2019-05-05T06:39:24.141Z,10.43
2019-05-05T06:42:10.809Z,11.07
2019-05-05T06:44:53.416Z,10.73
2019-05-05T06:47:26.031Z,11.53
2019-05-05T06:49:55.158Z,10.20
2019-05-05T06:52:24.826Z,10.67
2019-05-05T06:54:55.038Z,11.03
2019-05-05T06:57:24.179Z,10.43
2019-05-05T06:59:54.386Z,9.93
2019-05-05T07:02:23.872Z,9.47
2019-05-05T07:04:54.632Z,9.70
2019-05-05T07:07:23.935Z,9.00
2019-05-05T07:09:54.292Z,7.03
2019-05-05T07:12:24.157Z,7.20
2019-05-05T07:14:54.805Z,7.50
2019-05-05T07:17:24.518Z,4.87
2019-05-05T07:19:54.357Z,3.90
2019-05-05T07:22:24.440Z,4.00
2019-05-05T07:24:54.959Z,4.03
2019-05-05T07:27:24.442Z,3.20
2019-05-05T07:29:54.133Z,3.10
2019-05-05T07:32:24.525Z,2.97
2019-05-05T07:35:21.738Z,3.57
2019-05-05T07:37:50.812Z,3.30
2019-05-05T07:40:19.858Z,3.37
2019-05-05T07:42:48.886Z,3.20
2019-05-05T07:45:22.838Z,3.10
2019-05-05T07:47:48.747Z,2.67
2019-05-05T07:50:28.443Z,2.77
2019-05-05T07:52:48.646Z,3.00
2019-05-05T07:55:17.763Z,2.93
2019-05-05T07:57:46.887Z,3.43
2019-05-05T08:00:16.089Z,2.90
2019-05-05T08:02:45.398Z,2.60
2019-05-05T08:05:15.023Z,2.90
2019-05-05T08:07:44.777Z,2.57
2019-05-05T08:10:13.972Z,2.50
2019-05-05T08:12:43.598Z,2.33
2019-05-05T08:15:14.781Z,2.30
2019-05-05T08:18:04.614Z,2.47
2019-05-05T08:20:37.345Z,2.60
2019-05-05T08:23:08.756Z,3.00
2019-05-05T08:26:04.574Z,2.90
2019-05-05T08:28:43.467Z,2.47
2019-05-05T08:31:20.601Z,2.73
2019-05-05T08:33:49.762Z,2.93
2019-05-05T08:36:18.849Z,2.30
2019-05-05T08:38:48.488Z,3.43
2019-05-05T08:41:17.531Z,2.90
2019-05-05T08:43:46.894Z,2.13
2019-05-05T08:46:16.002Z,2.10
2019-05-05T08:48:45.147Z,2.30
2019-05-05T08:51:14.312Z,2.10
2019-05-05T08:53:47.905Z,2.40
2019-05-05T08:56:14.717Z,2.07
2019-05-05T08:58:43.951Z,2.50
2019-05-05T09:01:14.937Z,2.70
2019-05-05T09:03:44.999Z,2.20
2019-05-05T09:06:14.047Z,2.30
2019-05-05T09:08:44.188Z,2.47
2019-05-05T09:11:14.051Z,3.23
2019-05-05T09:13:44.656Z,2.60
2019-05-05T09:16:14.557Z,2.40
2019-05-05T09:19:04.935Z,2.53
2019-05-05T09:21:34.641Z,2.97
2019-05-05T09:24:22.470Z,2.67
2019-05-05T09:27:14.018Z,2.90
2019-05-05T09:29:44.060Z,2.03
2019-05-05T09:32:13.918Z,1.90
2019-05-05T09:34:43.694Z,2.43
2019-05-05T09:37:14.381Z,2.30
2019-05-05T09:39:43.842Z,2.07
2019-05-05T09:42:14.564Z,2.00
2019-05-05T09:44:43.967Z,2.20
2019-05-05T09:47:13.816Z,1.80
2019-05-05T09:49:44.625Z,1.90
2019-05-05T09:52:14.122Z,2.03
2019-05-05T09:54:43.842Z,2.20
2019-05-05T09:57:14.504Z,2.23
2019-05-05T09:59:44.324Z,2.47
2019-05-05T10:02:13.481Z,2.47
2019-05-05T10:04:44.142Z,2.50
2019-05-05T10:07:13.948Z,2.00
2019-05-05T10:09:43.755Z,2.40
2019-05-05T10:12:13.011Z,2.57
2019-05-05T10:14:42.047Z,2.10
2019-05-05T10:17:11.126Z,2.00
2019-05-05T10:19:40.140Z,2.80
2019-05-05T10:22:09.226Z,2.80
2019-05-05T10:24:47.796Z,2.30
2019-05-05T10:27:16.874Z,2.13
2019-05-05T10:29:45.901Z,1.80
2019-05-05T10:32:15.066Z,2.80
2019-05-05T10:34:45.733Z,2.60
2019-05-05T10:37:14.792Z,5.30
2019-05-05T10:39:49.208Z,2.07
2019-05-05T10:42:19.890Z,4.93
2019-05-05T10:44:48.956Z,1.70
2019-05-05T10:47:18.065Z,2.27
2019-05-05T10:49:47.097Z,1.50
2019-05-05T10:52:16.198Z,1.20
2019-05-05T10:54:45.224Z,2.07
2019-05-05T10:57:16.625Z,1.70
2019-05-05T10:59:45.128Z,1.50
2019-05-05T11:02:14.257Z,1.47
2019-05-05T11:04:44.152Z,1.70
2019-05-05T11:07:14.610Z,1.97
2019-05-05T11:09:44.432Z,2.23
2019-05-05T11:12:14.307Z,2.20
2019-05-05T11:14:44.315Z,2.30
2019-05-05T11:17:15.381Z,2.23
2019-05-05T11:19:44.506Z,2.40
2019-05-05T11:22:14.768Z,2.23
2019-05-05T11:24:55.223Z,2.20
2019-05-05T11:27:16.397Z,2.50
2019-05-05T11:30:03.985Z,2.10
2019-05-05T11:32:50.840Z,2.73
2019-05-05T11:35:21.517Z,2.63
2019-05-05T11:37:50.582Z,2.20
2019-05-05T11:40:31.701Z,1.80
2019-05-05T11:43:00.828Z,2.20
2019-05-05T11:45:31.250Z,2.60
2019-05-05T11:48:00.515Z,2.93
2019-05-05T11:50:29.553Z,2.10
2019-05-05T11:52:58.647Z,1.83
2019-05-05T11:55:27.709Z,1.97
2019-05-05T11:57:57.753Z,2.33
2019-05-05T12:00:26.798Z,1.40
2019-05-05T12:02:55.908Z,1.60
2019-05-05T12:05:25.012Z,2.47
2019-05-05T12:07:54.208Z,1.80
2019-05-05T12:10:40.651Z,2.30
2019-05-05T12:13:10.830Z,2.77
2019-05-05T12:15:44.612Z,2.23
2019-05-05T12:18:14.405Z,1.70
2019-05-05T12:20:44.196Z,2.17
2019-05-05T12:23:13.289Z,2.60
2019-05-05T12:25:57.000Z,1.70
2019-05-05T12:28:31.702Z,1.70
2019-05-05T12:31:03.573Z,1.80
2019-05-05T12:33:33.616Z,2.10
2019-05-05T12:36:05.227Z,2.03
2019-05-05T12:38:34.814Z,2.40
2019-05-05T12:41:04.468Z,2.20
2019-05-05T12:43:34.117Z,2.23
2019-05-05T12:46:16.481Z,2.80
2019-05-05T12:48:45.945Z,2.40
2019-05-05T12:51:15.030Z,2.80
2019-05-05T12:53:44.122Z,2.40
2019-05-05T12:56:14.755Z,2.57
2019-05-05T12:58:44.092Z,2.70
2019-05-05T13:01:19.032Z,2.20
2019-05-05T13:03:48.167Z,2.00
2019-05-05T13:06:17.369Z,2.30
2019-05-05T13:08:46.567Z,2.30
2019-05-05T13:11:15.693Z,5.47
2019-05-05T13:13:44.781Z,3.57
2019-05-05T13:16:13.972Z,2.70
2019-05-05T13:18:43.003Z,4.43
2019-05-05T13:21:20.616Z,3.23
2019-05-05T13:24:14.772Z,3.40
2019-05-05T13:26:53.688Z,2.73
2019-05-05T13:29:24.577Z,3.83
2019-05-05T13:31:54.455Z,3.33
2019-05-05T13:34:25.016Z,3.80
2019-05-05T13:36:54.129Z,3.00
2019-05-05T13:39:24.715Z,3.47
2019-05-05T13:41:54.138Z,2.47
2019-05-05T13:44:48.042Z,2.80
2019-05-05T13:47:17.615Z,2.70
2019-05-05T13:49:46.791Z,2.60
2019-05-05T13:52:15.894Z,2.63
2019-05-05T13:54:46.577Z,2.67
2019-05-05T13:57:15.943Z,2.60
2019-05-05T13:59:45.264Z,2.50
2019-05-05T14:02:15.355Z,3.63
2019-05-05T14:04:44.627Z,2.87
2019-05-05T14:07:13.759Z,2.57
2019-05-05T14:09:44.208Z,2.97
2019-05-05T14:12:14.623Z,2.60
2019-05-05T14:14:44.109Z,2.83
2019-05-05T14:17:14.716Z,2.97
2019-05-05T14:19:44.628Z,3.13
2019-05-05T14:22:15.124Z,3.17
2019-05-05T14:24:48.170Z,2.93
2019-05-05T14:27:17.267Z,2.87
2019-05-05T14:29:55.079Z,3.17
2019-05-05T14:32:28.805Z,3.10
2019-05-05T14:35:11.028Z,3.10
2019-05-05T14:37:44.456Z,2.80
2019-05-05T14:40:13.649Z,3.23
2019-05-05T14:42:44.825Z,2.70
2019-05-05T14:45:15.362Z,3.10
2019-05-05T14:47:44.509Z,3.37
2019-05-05T14:50:13.612Z,2.60
2019-05-05T14:52:44.084Z,3.60
2019-05-05T14:55:14.038Z,3.20
2019-05-05T14:57:46.079Z,3.50
2019-05-05T15:00:17.680Z,2.90
2019-05-05T15:02:47.500Z,2.90
2019-05-05T15:05:44.389Z,5.53
2019-05-05T15:08:35.593Z,2.90
2019-05-05T15:11:07.514Z,2.83
2019-05-05T15:13:37.018Z,3.37
2019-05-05T15:16:09.974Z,3.13
2019-05-05T15:18:38.452Z,2.90
2019-05-05T15:21:08.178Z,3.60
2019-05-05T15:23:37.413Z,2.87
2019-05-05T15:26:08.146Z,2.67
2019-05-05T15:28:37.275Z,3.17
2019-05-05T15:31:06.358Z,3.00
2019-05-05T15:33:35.429Z,3.97
2019-05-05T15:36:04.629Z,4.00
2019-05-05T15:38:34.839Z,3.77
2019-05-05T15:41:04.150Z,4.03
2019-05-05T15:43:33.580Z,3.47
2019-05-05T15:46:04.449Z,3.47
2019-05-05T15:48:33.730Z,4.20
2019-05-05T15:51:04.198Z,4.17
2019-05-05T15:53:33.570Z,3.47
2019-05-05T15:56:04.376Z,4.13
2019-05-05T15:58:34.241Z,7.77
2019-05-05T16:01:03.841Z,7.40
2019-05-05T16:03:32.968Z,9.70
2019-05-05T16:06:03.781Z,5.13
2019-05-05T16:08:33.950Z,5.30
2019-05-05T16:11:03.753Z,5.40
2019-05-05T16:13:35.067Z,4.70
2019-05-05T16:16:34.882Z,5.00
2019-05-05T16:19:14.009Z,5.27
2019-05-05T16:21:54.674Z,5.10
2019-05-05T16:24:25.889Z,5.07
2019-05-05T16:26:55.575Z,5.50
2019-05-05T16:29:24.692Z,5.30
2019-05-05T16:31:54.779Z,5.40
2019-05-05T16:34:23.883Z,4.90
2019-05-05T16:36:56.655Z,4.80
2019-05-05T16:39:25.661Z,5.00
2019-05-05T16:41:55.765Z,4.37
2019-05-05T16:44:24.953Z,4.67
2019-05-05T16:46:54.114Z,4.13
2019-05-05T16:49:23.256Z,4.93
2019-05-05T16:52:01.391Z,4.20
2019-05-05T16:54:36.155Z,4.63
2019-05-05T16:57:05.848Z,4.30
2019-05-05T16:59:36.154Z,5.27
2019-05-05T17:02:05.223Z,4.43
2019-05-05T17:04:35.640Z,4.80
2019-05-05T17:07:04.895Z,4.63
2019-05-05T17:09:34.441Z,4.40
2019-05-05T17:12:10.194Z,4.20
2019-05-05T17:15:08.569Z,4.60
2019-05-05T17:17:49.952Z,4.33
2019-05-05T17:20:21.955Z,9.43
2019-05-05T17:22:55.162Z,10.63
2019-05-05T17:25:24.695Z,9.77
2019-05-05T17:27:54.571Z,6.17
2019-05-05T17:30:27.017Z,5.70
2019-05-05T17:32:54.637Z,5.30
2019-05-05T17:35:24.060Z,4.60
2019-05-05T17:37:53.918Z,4.70
2019-05-05T17:40:44.825Z,4.80
2019-05-05T17:43:27.607Z,4.37
2019-05-05T17:46:05.280Z,4.50
2019-05-05T17:48:46.107Z,3.90
2019-05-05T17:51:34.150Z,3.73
2019-05-05T17:54:12.773Z,4.23
2019-05-05T17:56:42.104Z,3.20
2019-05-05T17:59:11.291Z,4.00
2019-05-05T18:01:40.409Z,3.37
2019-05-05T18:04:10.665Z,13.57
2019-05-05T18:06:47.426Z,3.57
2019-05-05T18:09:24.209Z,3.17
2019-05-05T18:12:17.177Z,3.40
2019-05-05T18:14:46.439Z,3.20
2019-05-05T18:17:15.997Z,3.87
2019-05-05T18:19:45.207Z,3.40
2019-05-05T18:22:15.649Z,3.50
2019-05-05T18:24:44.801Z,4.17
2019-05-05T18:27:14.188Z,4.40
2019-05-05T18:29:43.710Z,5.23
2019-05-05T18:32:13.867Z,5.10
2019-05-05T18:34:43.025Z,5.00
2019-05-05T18:37:12.108Z,5.00
2019-05-05T18:39:41.338Z,4.97
2019-05-05T18:42:17.670Z,4.47
2019-05-05T18:44:49.050Z,4.77
2019-05-05T18:47:19.219Z,5.07
2019-05-05T18:49:48.414Z,4.73
2019-05-05T18:52:18.788Z,4.73
2019-05-05T18:54:47.931Z,4.43
2019-05-05T18:57:17.043Z,4.70
2019-05-05T18:59:46.212Z,5.07
2019-05-05T19:02:37.126Z,4.50
2019-05-05T19:05:26.027Z,4.73
2019-05-05T19:08:01.957Z,5.30
2019-05-05T19:10:31.223Z,5.23
2019-05-05T19:13:00.379Z,4.87
2019-05-05T19:15:29.497Z,5.33
2019-05-05T19:17:58.602Z,4.97
2019-05-05T19:20:36.748Z,6.23
2019-05-05T19:23:06.099Z,6.00
2019-05-05T19:25:35.868Z,4.90
2019-05-05T19:28:05.239Z,5.07
2019-05-05T19:30:36.184Z,4.90
2019-05-05T19:33:05.570Z,5.10
2019-05-05T19:35:44.187Z,6.67
2019-05-05T19:38:05.652Z,5.17
2019-05-05T19:40:36.092Z,12.83
2019-05-05T19:43:05.291Z,9.20
2019-05-05T19:45:34.643Z,6.87
2019-05-05T19:48:05.899Z,6.43
2019-05-05T19:50:40.534Z,5.60
2019-05-05T19:53:24.607Z,5.13
2019-05-05T19:55:54.813Z,5.10
2019-05-05T19:58:24.126Z,5.40
2019-05-05T20:00:57.293Z,5.77
2019-05-05T20:03:26.502Z,6.30
2019-05-05T20:05:55.762Z,6.73
2019-05-05T20:08:39.013Z,6.40
2019-05-05T20:10:56.095Z,5.63
2019-05-05T20:13:25.343Z,5.30
2019-05-05T20:16:16.198Z,6.57
2019-05-05T20:18:45.343Z,7.57
2019-05-05T20:21:15.930Z,7.43
2019-05-05T20:23:45.139Z,7.50
2019-05-05T20:26:14.596Z,9.00
2019-05-05T20:28:43.701Z,7.77
2019-05-05T20:31:14.215Z,7.50
2019-05-05T20:33:50.520Z,7.77
2019-05-05T20:36:23.752Z,7.90
2019-05-05T20:38:54.931Z,6.23
2019-05-05T20:41:25.399Z,7.57
2019-05-05T20:43:54.564Z,6.40
2019-05-05T20:46:23.881Z,6.03
2019-05-05T20:48:54.519Z,6.07
2019-05-05T20:51:24.260Z,5.20
2019-05-05T20:53:54.196Z,5.93
2019-05-05T20:56:23.542Z,5.40
2019-05-05T20:58:54.734Z,6.13
2019-05-05T21:01:24.598Z,7.00
2019-05-05T21:03:54.023Z,5.53
2019-05-05T21:06:24.557Z,5.80
2019-05-05T21:08:53.862Z,6.03
2019-05-05T21:11:24.677Z,5.70
2019-05-05T21:13:54.422Z,6.20
2019-05-05T21:16:23.781Z,5.70
2019-05-05T21:18:53.941Z,5.50
2019-05-05T21:21:27.050Z,6.47
2019-05-05T21:23:58.118Z,6.40
2019-05-05T21:26:46.340Z,6.97
2019-05-05T21:29:15.875Z,6.50
2019-05-05T21:31:46.333Z,6.67
2019-05-05T21:34:15.480Z,6.30
2019-05-05T21:36:45.036Z,6.47
2019-05-05T21:39:14.867Z,6.40
2019-05-05T21:41:44.133Z,6.50
2019-05-05T21:44:14.750Z,6.50
2019-05-05T21:46:43.984Z,7.37
2019-05-05T21:49:13.728Z,6.33
2019-05-05T21:51:59.226Z,7.27
2019-05-05T21:54:44.817Z,7.43
2019-05-05T21:57:45.367Z,6.83
2019-05-05T22:00:37.441Z,6.67
2019-05-05T22:03:07.157Z,6.50
2019-05-05T22:05:36.675Z,7.80
2019-05-05T22:08:06.650Z,6.83
2019-05-05T22:10:36.128Z,6.17
2019-05-05T22:13:05.306Z,7.37
2019-05-05T22:15:35.791Z,7.20
2019-05-05T22:18:05.012Z,7.57
2019-05-05T22:20:39.769Z,6.77
2019-05-05T22:23:10.381Z,7.53
2019-05-05T22:25:39.611Z,7.17
2019-05-05T22:28:09.283Z,7.47
2019-05-05T22:30:38.465Z,7.53
2019-05-05T22:33:07.659Z,7.97
2019-05-05T22:35:37.387Z,7.33
2019-05-05T22:38:06.650Z,7.47
2019-05-05T22:40:35.871Z,7.03
2019-05-05T22:43:05.308Z,7.97
2019-05-05T22:45:34.564Z,7.60
2019-05-05T22:48:04.682Z,8.03
2019-05-05T22:50:34.139Z,6.93
2019-05-05T22:53:03.451Z,7.73
2019-05-05T22:55:34.407Z,6.87
2019-05-05T22:58:04.118Z,6.73
2019-05-05T23:00:34.830Z,6.70
2019-05-05T23:03:24.540Z,7.33
2019-05-05T23:06:00.184Z,6.27
2019-05-05T23:08:29.421Z,6.83
2019-05-05T23:10:58.814Z,7.40
2019-05-05T23:13:29.730Z,8.63
2019-05-05T23:16:07.064Z,7.53
2019-05-05T23:18:36.162Z,7.80
2019-05-05T23:21:24.676Z,7.93
2019-05-05T23:24:07.716Z,7.73
2019-05-05T23:26:38.180Z,8.00
2019-05-05T23:29:07.384Z,8.40
2019-05-05T23:31:37.942Z,8.87
2019-05-05T23:34:07.116Z,8.73
2019-05-05T23:36:36.312Z,8.40
2019-05-05T23:39:06.770Z,9.20
2019-05-05T23:41:36.634Z,9.47
2019-05-05T23:44:06.060Z,8.97
2019-05-05T23:46:35.229Z,9.73
2019-05-05T23:49:04.511Z,10.13
2019-05-05T23:51:34.740Z,9.80
2019-05-05T23:54:04.376Z,9.90
2019-05-05T23:56:34.949Z,10.07
2019-05-05T23:59:04.458Z,9.93
